sensor_id;sensor_type;location;lat;lon;timestamp;P1;durP1;ratioP1;P2;durP2;ratioP2
53062;SDS011;40529;52.172;10.548;2022-10-17T00:01:16;7.40;;;4.22;;
53062;SDS011;40529;52.172;10.548;2022-10-17T00:03:42;13.32;;;6.68;;
53062;SDS011;40529;52.172;10.548;2022-10-17T00:06:09;31.38;;;13.82;;
53062;SDS011;40529;52.172;10.548;2022-10-17T00:08:36;22.23;;;11.05;;
53062;SDS011;40529;52.172;10.548;2022-10-17T00:11:04;13.52;;;6.25;;
53062;SDS011;40529;52.172;10.548;2022-10-17T00:13:31;8.82;;;4.78;;
53062;SDS011;40529;52.172;10.548;2022-10-17T00:15:57;5.00;;;3.65;;
53062;SDS011;40529;52.172;10.548;2022-10-17T00:18:23;5.75;;;3.58;;
53062;SDS011;40529;52.172;10.548;2022-10-17T00:20:49;4.53;;;3.03;;
53062;SDS011;40529;52.172;10.548;2022-10-17T00:23:15;5.22;;;3.03;;
53062;SDS011;40529;52.172;10.548;2022-10-17T00:25:41;4.63;;;3.22;;
53062;SDS011;40529;52.172;10.548;2022-10-17T00:28:12;4.05;;;2.45;;
53062;SDS011;40529;52.172;10.548;2022-10-17T00:30:38;6.57;;;2.85;;
53062;SDS011;40529;52.172;10.548;2022-10-17T00:33:04;3.10;;;2.67;;
53062;SDS011;40529;52.172;10.548;2022-10-17T00:35:31;4.70;;;2.90;;
53062;SDS011;40529;52.172;10.548;2022-10-17T00:37:57;4.65;;;3.00;;
53062;SDS011;40529;52.172;10.548;2022-10-17T00:40:23;6.07;;;3.22;;
53062;SDS011;40529;52.172;10.548;2022-10-17T00:42:49;6.28;;;2.90;;
53062;SDS011;40529;52.172;10.548;2022-10-17T00:45:27;3.88;;;3.00;;
53062;SDS011;40529;52.172;10.548;2022-10-17T00:47:58;3.58;;;2.80;;
53062;SDS011;40529;52.172;10.548;2022-10-17T00:50:25;3.63;;;2.72;;
53062;SDS011;40529;52.172;10.548;2022-10-17T00:52:52;4.13;;;3.00;;
53062;SDS011;40529;52.172;10.548;2022-10-17T00:55:23;4.90;;;2.80;;
53062;SDS011;40529;52.172;10.548;2022-10-17T00:57:50;4.00;;;3.05;;
53062;SDS011;40529;52.172;10.548;2022-10-17T01:00:17;5.40;;;2.83;;
53062;SDS011;40529;52.172;10.548;2022-10-17T01:02:43;4.95;;;3.03;;
53062;SDS011;40529;52.172;10.548;2022-10-17T01:05:10;4.25;;;2.97;;
53062;SDS011;40529;52.172;10.548;2022-10-17T01:07:37;5.18;;;3.00;;
53062;SDS011;40529;52.172;10.548;2022-10-17T01:10:04;5.75;;;3.30;;
53062;SDS011;40529;52.172;10.548;2022-10-17T01:12:46;4.05;;;3.30;;
53062;SDS011;40529;52.172;10.548;2022-10-17T01:15:32;4.88;;;3.60;;
53062;SDS011;40529;52.172;10.548;2022-10-17T01:18:07;4.93;;;3.70;;
53062;SDS011;40529;52.172;10.548;2022-10-17T01:25:54;4.70;;;3.70;;
53062;SDS011;40529;52.172;10.548;2022-10-17T01:31:05;5.38;;;3.80;;
53062;SDS011;40529;52.172;10.548;2022-10-17T01:39:30;6.47;;;4.45;;
53062;SDS011;40529;52.172;10.548;2022-10-17T01:42:07;6.57;;;4.43;;
53062;SDS011;40529;52.172;10.548;2022-10-17T01:44:36;5.35;;;4.55;;
53062;SDS011;40529;52.172;10.548;2022-10-17T01:47:08;5.93;;;4.50;;
53062;SDS011;40529;52.172;10.548;2022-10-17T01:49:35;6.10;;;5.07;;
53062;SDS011;40529;52.172;10.548;2022-10-17T01:52:07;7.18;;;5.00;;
53062;SDS011;40529;52.172;10.548;2022-10-17T01:54:44;8.88;;;5.50;;
53062;SDS011;40529;52.172;10.548;2022-10-17T01:57:14;6.47;;;5.50;;
53062;SDS011;40529;52.172;10.548;2022-10-17T01:59:43;7.82;;;4.93;;
53062;SDS011;40529;52.172;10.548;2022-10-17T02:02:10;6.90;;;4.75;;
53062;SDS011;40529;52.172;10.548;2022-10-17T02:04:38;6.95;;;5.13;;
53062;SDS011;40529;52.172;10.548;2022-10-17T02:07:06;6.88;;;4.78;;
53062;SDS011;40529;52.172;10.548;2022-10-17T02:09:32;6.55;;;4.97;;
53062;SDS011;40529;52.172;10.548;2022-10-17T02:14:35;7.93;;;4.90;;
53062;SDS011;40529;52.172;10.548;2022-10-17T02:17:38;6.70;;;4.35;;
53062;SDS011;40529;52.172;10.548;2022-10-17T02:22:39;8.82;;;5.63;;
53062;SDS011;40529;52.172;10.548;2022-10-17T02:25:08;6.40;;;4.90;;
53062;SDS011;40529;52.172;10.548;2022-10-17T02:30:05;4.93;;;4.32;;
53062;SDS011;40529;52.172;10.548;2022-10-17T02:32:34;8.35;;;5.18;;
53062;SDS011;40529;52.172;10.548;2022-10-17T02:35:02;7.25;;;5.28;;
53062;SDS011;40529;52.172;10.548;2022-10-17T02:37:29;5.90;;;5.05;;
53062;SDS011;40529;52.172;10.548;2022-10-17T02:39:56;5.28;;;4.78;;
53062;SDS011;40529;52.172;10.548;2022-10-17T02:42:23;7.22;;;4.85;;
53062;SDS011;40529;52.172;10.548;2022-10-17T02:44:50;5.05;;;4.55;;
53062;SDS011;40529;52.172;10.548;2022-10-17T02:47:28;5.95;;;4.65;;
53062;SDS011;40529;52.172;10.548;2022-10-17T02:49:57;5.22;;;4.72;;
53062;SDS011;40529;52.172;10.548;2022-10-17T02:55:13;7.82;;;5.38;;
53062;SDS011;40529;52.172;10.548;2022-10-17T02:57:57;8.10;;;5.60;;
53062;SDS011;40529;52.172;10.548;2022-10-17T03:00:22;7.13;;;6.05;;
53062;SDS011;40529;52.172;10.548;2022-10-17T03:02:50;7.07;;;5.57;;
53062;SDS011;40529;52.172;10.548;2022-10-17T03:05:18;9.52;;;5.95;;
53062;SDS011;40529;52.172;10.548;2022-10-17T03:07:45;8.68;;;5.70;;
53062;SDS011;40529;52.172;10.548;2022-10-17T03:10:11;7.10;;;5.43;;
53062;SDS011;40529;52.172;10.548;2022-10-17T03:12:37;8.40;;;6.47;;
53062;SDS011;40529;52.172;10.548;2022-10-17T03:15:03;8.50;;;6.32;;
53062;SDS011;40529;52.172;10.548;2022-10-17T03:17:29;7.40;;;5.82;;
53062;SDS011;40529;52.172;10.548;2022-10-17T03:19:55;8.20;;;5.88;;
53062;SDS011;40529;52.172;10.548;2022-10-17T03:22:21;8.25;;;5.80;;
53062;SDS011;40529;52.172;10.548;2022-10-17T03:24:48;7.47;;;6.00;;
53062;SDS011;40529;52.172;10.548;2022-10-17T03:27:14;6.65;;;5.47;;
53062;SDS011;40529;52.172;10.548;2022-10-17T03:29:40;8.18;;;6.07;;
53062;SDS011;40529;52.172;10.548;2022-10-17T03:32:06;7.85;;;5.93;;
53062;SDS011;40529;52.172;10.548;2022-10-17T03:34:32;7.45;;;5.53;;
53062;SDS011;40529;52.172;10.548;2022-10-17T03:36:58;8.57;;;6.68;;
53062;SDS011;40529;52.172;10.548;2022-10-17T03:39:24;7.78;;;6.05;;
53062;SDS011;40529;52.172;10.548;2022-10-17T03:41:50;6.28;;;5.53;;
53062;SDS011;40529;52.172;10.548;2022-10-17T03:44:16;8.15;;;5.97;;
53062;SDS011;40529;52.172;10.548;2022-10-17T03:46:42;9.20;;;6.15;;
53062;SDS011;40529;52.172;10.548;2022-10-17T03:49:09;8.35;;;6.13;;
53062;SDS011;40529;52.172;10.548;2022-10-17T03:51:35;7.75;;;5.95;;
53062;SDS011;40529;52.172;10.548;2022-10-17T03:54:01;9.70;;;6.72;;
53062;SDS011;40529;52.172;10.548;2022-10-17T03:56:27;8.85;;;6.07;;
53062;SDS011;40529;52.172;10.548;2022-10-17T03:58:54;8.82;;;6.20;;
53062;SDS011;40529;52.172;10.548;2022-10-17T04:01:20;9.98;;;6.25;;
53062;SDS011;40529;52.172;10.548;2022-10-17T04:03:50;9.95;;;6.20;;
53062;SDS011;40529;52.172;10.548;2022-10-17T04:08:42;7.05;;;5.70;;
53062;SDS011;40529;52.172;10.548;2022-10-17T04:11:09;7.65;;;5.60;;
53062;SDS011;40529;52.172;10.548;2022-10-17T04:13:37;6.82;;;5.78;;
53062;SDS011;40529;52.172;10.548;2022-10-17T04:16:05;8.23;;;6.18;;
53062;SDS011;40529;52.172;10.548;2022-10-17T04:18:31;7.82;;;6.18;;
53062;SDS011;40529;52.172;10.548;2022-10-17T04:21:00;9.93;;;6.72;;
53062;SDS011;40529;52.172;10.548;2022-10-17T04:23:26;9.80;;;5.67;;
53062;SDS011;40529;52.172;10.548;2022-10-17T04:25:59;10.15;;;7.50;;
53062;SDS011;40529;52.172;10.548;2022-10-17T04:28:26;9.85;;;7.80;;
53062;SDS011;40529;52.172;10.548;2022-10-17T04:30:59;11.10;;;7.75;;
53062;SDS011;40529;52.172;10.548;2022-10-17T04:33:25;9.65;;;7.72;;
53062;SDS011;40529;52.172;10.548;2022-10-17T04:36:01;12.05;;;8.57;;
53062;SDS011;40529;52.172;10.548;2022-10-17T04:38:28;10.15;;;7.53;;
53062;SDS011;40529;52.172;10.548;2022-10-17T04:40:58;9.52;;;6.90;;
53062;SDS011;40529;52.172;10.548;2022-10-17T04:43:27;10.00;;;7.13;;
53062;SDS011;40529;52.172;10.548;2022-10-17T04:45:53;10.07;;;6.80;;
53062;SDS011;40529;52.172;10.548;2022-10-17T04:48:19;11.60;;;8.07;;
53062;SDS011;40529;52.172;10.548;2022-10-17T04:50:55;9.07;;;7.28;;
53062;SDS011;40529;52.172;10.548;2022-10-17T04:53:22;8.48;;;6.57;;
53062;SDS011;40529;52.172;10.548;2022-10-17T04:55:48;10.00;;;6.97;;
53062;SDS011;40529;52.172;10.548;2022-10-17T04:58:15;10.68;;;7.18;;
53062;SDS011;40529;52.172;10.548;2022-10-17T05:00:41;10.25;;;7.18;;
53062;SDS011;40529;52.172;10.548;2022-10-17T05:03:07;9.63;;;6.90;;
53062;SDS011;40529;52.172;10.548;2022-10-17T05:05:35;10.73;;;7.55;;
53062;SDS011;40529;52.172;10.548;2022-10-17T05:08:01;10.63;;;6.78;;
53062;SDS011;40529;52.172;10.548;2022-10-17T05:10:27;10.48;;;6.82;;
53062;SDS011;40529;52.172;10.548;2022-10-17T05:12:54;8.02;;;6.32;;
53062;SDS011;40529;52.172;10.548;2022-10-17T05:15:20;9.70;;;6.30;;
53062;SDS011;40529;52.172;10.548;2022-10-17T05:17:46;9.32;;;6.03;;
53062;SDS011;40529;52.172;10.548;2022-10-17T05:20:12;9.35;;;6.53;;
53062;SDS011;40529;52.172;10.548;2022-10-17T05:22:38;7.57;;;6.22;;
53062;SDS011;40529;52.172;10.548;2022-10-17T05:25:05;8.85;;;7.03;;
53062;SDS011;40529;52.172;10.548;2022-10-17T05:27:31;9.32;;;6.72;;
53062;SDS011;40529;52.172;10.548;2022-10-17T05:29:57;12.13;;;7.43;;
53062;SDS011;40529;52.172;10.548;2022-10-17T05:32:23;10.70;;;7.55;;
53062;SDS011;40529;52.172;10.548;2022-10-17T05:34:49;11.57;;;7.65;;
53062;SDS011;40529;52.172;10.548;2022-10-17T05:37:15;10.93;;;8.25;;
53062;SDS011;40529;52.172;10.548;2022-10-17T05:39:41;10.57;;;8.07;;
53062;SDS011;40529;52.172;10.548;2022-10-17T05:42:07;12.20;;;8.10;;
53062;SDS011;40529;52.172;10.548;2022-10-17T05:44:33;11.50;;;7.40;;
53062;SDS011;40529;52.172;10.548;2022-10-17T05:47:00;11.00;;;8.10;;
53062;SDS011;40529;52.172;10.548;2022-10-17T05:49:26;10.95;;;7.88;;
53062;SDS011;40529;52.172;10.548;2022-10-17T05:51:52;14.43;;;8.05;;
53062;SDS011;40529;52.172;10.548;2022-10-17T05:54:18;12.93;;;8.52;;
53062;SDS011;40529;52.172;10.548;2022-10-17T05:56:44;11.73;;;8.50;;
53062;SDS011;40529;52.172;10.548;2022-10-17T05:59:10;10.45;;;8.10;;
53062;SDS011;40529;52.172;10.548;2022-10-17T06:01:36;13.63;;;8.23;;
53062;SDS011;40529;52.172;10.548;2022-10-17T06:04:02;9.85;;;7.90;;
53062;SDS011;40529;52.172;10.548;2022-10-17T06:06:28;11.00;;;7.82;;
53062;SDS011;40529;52.172;10.548;2022-10-17T06:08:54;10.48;;;7.50;;
53062;SDS011;40529;52.172;10.548;2022-10-17T06:11:20;11.77;;;8.35;;
53062;SDS011;40529;52.172;10.548;2022-10-17T06:13:46;11.23;;;7.60;;
53062;SDS011;40529;52.172;10.548;2022-10-17T06:16:12;11.07;;;7.80;;
53062;SDS011;40529;52.172;10.548;2022-10-17T06:18:38;10.60;;;7.25;;
53062;SDS011;40529;52.172;10.548;2022-10-17T06:21:05;9.38;;;7.15;;
53062;SDS011;40529;52.172;10.548;2022-10-17T06:23:32;10.75;;;7.15;;
53062;SDS011;40529;52.172;10.548;2022-10-17T06:25:59;9.65;;;6.90;;
53062;SDS011;40529;52.172;10.548;2022-10-17T06:28:25;9.93;;;6.70;;
53062;SDS011;40529;52.172;10.548;2022-10-17T06:30:51;12.05;;;6.75;;
53062;SDS011;40529;52.172;10.548;2022-10-17T06:33:17;10.98;;;6.93;;
53062;SDS011;40529;52.172;10.548;2022-10-17T06:35:49;9.15;;;6.05;;
53062;SDS011;40529;52.172;10.548;2022-10-17T06:38:15;9.60;;;6.75;;
53062;SDS011;40529;52.172;10.548;2022-10-17T06:40:41;9.60;;;6.47;;
53062;SDS011;40529;52.172;10.548;2022-10-17T06:43:07;7.18;;;5.93;;
53062;SDS011;40529;52.172;10.548;2022-10-17T06:45:33;7.53;;;5.95;;
53062;SDS011;40529;52.172;10.548;2022-10-17T06:48:00;9.60;;;5.85;;
53062;SDS011;40529;52.172;10.548;2022-10-17T06:50:27;10.98;;;6.40;;
53062;SDS011;40529;52.172;10.548;2022-10-17T06:52:53;11.68;;;6.10;;
53062;SDS011;40529;52.172;10.548;2022-10-17T06:55:19;12.80;;;6.97;;
53062;SDS011;40529;52.172;10.548;2022-10-17T06:57:45;10.70;;;6.68;;
53062;SDS011;40529;52.172;10.548;2022-10-17T07:00:11;16.50;;;6.47;;
53062;SDS011;40529;52.172;10.548;2022-10-17T07:02:37;13.55;;;6.28;;
53062;SDS011;40529;52.172;10.548;2022-10-17T07:05:04;9.55;;;5.55;;
53062;SDS011;40529;52.172;10.548;2022-10-17T07:07:30;9.23;;;5.10;;
53062;SDS011;40529;52.172;10.548;2022-10-17T07:09:56;10.35;;;5.63;;
53062;SDS011;40529;52.172;10.548;2022-10-17T07:12:23;9.40;;;5.75;;
53062;SDS011;40529;52.172;10.548;2022-10-17T07:14:49;14.43;;;6.25;;
53062;SDS011;40529;52.172;10.548;2022-10-17T07:17:15;8.15;;;5.82;;
53062;SDS011;40529;52.172;10.548;2022-10-17T07:19:42;10.60;;;6.35;;
53062;SDS011;40529;52.172;10.548;2022-10-17T07:22:09;9.68;;;6.05;;
53062;SDS011;40529;52.172;10.548;2022-10-17T07:24:35;7.53;;;5.72;;
53062;SDS011;40529;52.172;10.548;2022-10-17T07:27:01;8.18;;;5.43;;
53062;SDS011;40529;52.172;10.548;2022-10-17T07:29:27;7.88;;;5.18;;
53062;SDS011;40529;52.172;10.548;2022-10-17T07:31:53;7.55;;;4.57;;
53062;SDS011;40529;52.172;10.548;2022-10-17T07:34:19;7.72;;;4.50;;
53062;SDS011;40529;52.172;10.548;2022-10-17T07:36:45;7.28;;;4.32;;
53062;SDS011;40529;52.172;10.548;2022-10-17T07:39:12;4.70;;;4.20;;
53062;SDS011;40529;52.172;10.548;2022-10-17T07:41:38;5.65;;;4.40;;
53062;SDS011;40529;52.172;10.548;2022-10-17T07:44:04;11.18;;;4.47;;
53062;SDS011;40529;52.172;10.548;2022-10-17T07:46:30;7.25;;;3.72;;
53062;SDS011;40529;52.172;10.548;2022-10-17T07:48:56;6.82;;;3.83;;
53062;SDS011;40529;52.172;10.548;2022-10-17T07:51:22;7.53;;;4.35;;
53062;SDS011;40529;52.172;10.548;2022-10-17T07:53:48;6.13;;;4.40;;
53062;SDS011;40529;52.172;10.548;2022-10-17T07:56:14;6.20;;;3.90;;
53062;SDS011;40529;52.172;10.548;2022-10-17T07:58:41;9.50;;;4.10;;
53062;SDS011;40529;52.172;10.548;2022-10-17T08:01:07;6.28;;;4.22;;
53062;SDS011;40529;52.172;10.548;2022-10-17T08:03:35;15.15;;;4.13;;
53062;SDS011;40529;52.172;10.548;2022-10-17T08:06:01;6.30;;;3.97;;
53062;SDS011;40529;52.172;10.548;2022-10-17T08:08:27;6.88;;;3.85;;
53062;SDS011;40529;52.172;10.548;2022-10-17T08:10:54;8.10;;;4.38;;
53062;SDS011;40529;52.172;10.548;2022-10-17T08:13:23;5.85;;;3.70;;
53062;SDS011;40529;52.172;10.548;2022-10-17T08:15:49;5.03;;;3.40;;
53062;SDS011;40529;52.172;10.548;2022-10-17T08:18:16;5.32;;;3.60;;
53062;SDS011;40529;52.172;10.548;2022-10-17T08:20:42;7.47;;;3.40;;
53062;SDS011;40529;52.172;10.548;2022-10-17T08:23:08;9.38;;;3.78;;
53062;SDS011;40529;52.172;10.548;2022-10-17T08:25:36;7.82;;;3.30;;
53062;SDS011;40529;52.172;10.548;2022-10-17T08:28:02;7.93;;;3.78;;
53062;SDS011;40529;52.172;10.548;2022-10-17T08:30:28;7.22;;;4.13;;
53062;SDS011;40529;52.172;10.548;2022-10-17T08:32:54;8.77;;;3.75;;
53062;SDS011;40529;52.172;10.548;2022-10-17T08:35:21;5.10;;;3.30;;
53062;SDS011;40529;52.172;10.548;2022-10-17T08:37:47;5.13;;;3.60;;
53062;SDS011;40529;52.172;10.548;2022-10-17T08:40:23;7.40;;;3.25;;
53062;SDS011;40529;52.172;10.548;2022-10-17T08:45:32;6.93;;;3.42;;
53062;SDS011;40529;52.172;10.548;2022-10-17T08:48:00;5.30;;;3.22;;
53062;SDS011;40529;52.172;10.548;2022-10-17T08:52:53;4.78;;;3.08;;
53062;SDS011;40529;52.172;10.548;2022-10-17T08:57:57;4.38;;;2.83;;
53062;SDS011;40529;52.172;10.548;2022-10-17T09:00:23;6.82;;;3.25;;
53062;SDS011;40529;52.172;10.548;2022-10-17T09:10:45;5.43;;;2.70;;
53062;SDS011;40529;52.172;10.548;2022-10-17T09:20:45;3.80;;;2.50;;
53062;SDS011;40529;52.172;10.548;2022-10-17T09:23:16;7.63;;;2.50;;
53062;SDS011;40529;52.172;10.548;2022-10-17T09:25:47;4.45;;;2.72;;
53062;SDS011;40529;52.172;10.548;2022-10-17T09:28:16;3.97;;;2.53;;
53062;SDS011;40529;52.172;10.548;2022-10-17T09:30:44;3.27;;;1.90;;
53062;SDS011;40529;52.172;10.548;2022-10-17T09:35:43;2.22;;;1.92;;
53062;SDS011;40529;52.172;10.548;2022-10-17T09:38:14;2.75;;;2.42;;
53062;SDS011;40529;52.172;10.548;2022-10-17T09:40:41;5.22;;;2.50;;
53062;SDS011;40529;52.172;10.548;2022-10-17T09:43:07;3.45;;;2.20;;
53062;SDS011;40529;52.172;10.548;2022-10-17T09:45:39;3.80;;;2.75;;
53062;SDS011;40529;52.172;10.548;2022-10-17T09:50:46;4.90;;;2.40;;
53062;SDS011;40529;52.172;10.548;2022-10-17T09:53:13;3.35;;;2.35;;
53062;SDS011;40529;52.172;10.548;2022-10-17T09:55:42;2.92;;;2.22;;
53062;SDS011;40529;52.172;10.548;2022-10-17T09:58:08;3.97;;;2.53;;
53062;SDS011;40529;52.172;10.548;2022-10-17T10:00:36;5.30;;;2.67;;
53062;SDS011;40529;52.172;10.548;2022-10-17T10:05:34;6.70;;;2.60;;
53062;SDS011;40529;52.172;10.548;2022-10-17T10:08:01;7.55;;;2.58;;
53062;SDS011;40529;52.172;10.548;2022-10-17T10:10:29;5.43;;;2.33;;
53062;SDS011;40529;52.172;10.548;2022-10-17T10:15:51;3.85;;;2.22;;
53062;SDS011;40529;52.172;10.548;2022-10-17T10:21:11;3.17;;;2.45;;
53062;SDS011;40529;52.172;10.548;2022-10-17T10:23:36;6.05;;;2.33;;
53062;SDS011;40529;52.172;10.548;2022-10-17T10:31:23;7.00;;;2.50;;
53062;SDS011;40529;52.172;10.548;2022-10-17T10:33:50;6.82;;;2.25;;
53062;SDS011;40529;52.172;10.548;2022-10-17T10:36:16;5.18;;;2.20;;
53062;SDS011;40529;52.172;10.548;2022-10-17T10:38:50;4.60;;;2.38;;
53062;SDS011;40529;52.172;10.548;2022-10-17T10:41:17;4.78;;;2.20;;
53062;SDS011;40529;52.172;10.548;2022-10-17T10:43:46;4.88;;;2.03;;
53062;SDS011;40529;52.172;10.548;2022-10-17T10:46:23;4.13;;;2.42;;
53062;SDS011;40529;52.172;10.548;2022-10-17T10:51:18;6.25;;;2.55;;
53062;SDS011;40529;52.172;10.548;2022-10-17T10:59:26;8.07;;;2.20;;
53062;SDS011;40529;52.172;10.548;2022-10-17T11:07:20;3.83;;;1.85;;
53062;SDS011;40529;52.172;10.548;2022-10-17T11:22:33;5.03;;;2.00;;
53062;SDS011;40529;52.172;10.548;2022-10-17T11:27:27;4.07;;;2.00;;
53062;SDS011;40529;52.172;10.548;2022-10-17T11:29:53;4.57;;;2.00;;
53062;SDS011;40529;52.172;10.548;2022-10-17T11:32:24;4.38;;;2.13;;
53062;SDS011;40529;52.172;10.548;2022-10-17T11:34:53;6.28;;;2.20;;
53062;SDS011;40529;52.172;10.548;2022-10-17T11:37:22;9.40;;;2.08;;
53062;SDS011;40529;52.172;10.548;2022-10-17T11:40:02;4.97;;;1.98;;
53062;SDS011;40529;52.172;10.548;2022-10-17T11:45:16;5.35;;;1.80;;
53062;SDS011;40529;52.172;10.548;2022-10-17T11:47:43;4.30;;;1.80;;
53062;SDS011;40529;52.172;10.548;2022-10-17T11:52:59;6.93;;;2.20;;
53062;SDS011;40529;52.172;10.548;2022-10-17T11:55:27;5.47;;;2.13;;
53062;SDS011;40529;52.172;10.548;2022-10-17T12:08:02;5.18;;;2.10;;
53062;SDS011;40529;52.172;10.548;2022-10-17T12:12:56;5.10;;;1.95;;
53062;SDS011;40529;52.172;10.548;2022-10-17T12:18:01;3.67;;;2.00;;
53062;SDS011;40529;52.172;10.548;2022-10-17T12:22:56;5.95;;;2.13;;
53062;SDS011;40529;52.172;10.548;2022-10-17T12:25:24;6.53;;;1.75;;
53062;SDS011;40529;52.172;10.548;2022-10-17T12:30:32;8.05;;;1.98;;
53062;SDS011;40529;52.172;10.548;2022-10-17T12:35:25;4.07;;;1.77;;
53062;SDS011;40529;52.172;10.548;2022-10-17T12:43:31;5.10;;;1.77;;
53062;SDS011;40529;52.172;10.548;2022-10-17T12:45:52;7.10;;;1.70;;
53062;SDS011;40529;52.172;10.548;2022-10-17T12:51:10;3.45;;;1.70;;
53062;SDS011;40529;52.172;10.548;2022-10-17T12:56:18;5.97;;;1.85;;
53062;SDS011;40529;52.172;10.548;2022-10-17T12:58:45;4.05;;;1.60;;
53062;SDS011;40529;52.172;10.548;2022-10-17T13:01:16;7.18;;;1.67;;
53062;SDS011;40529;52.172;10.548;2022-10-17T13:03:43;4.97;;;1.60;;
53062;SDS011;40529;52.172;10.548;2022-10-17T13:06:12;3.63;;;1.90;;
53062;SDS011;40529;52.172;10.548;2022-10-17T13:08:42;3.63;;;2.00;;
53062;SDS011;40529;52.172;10.548;2022-10-17T13:11:09;5.13;;;1.70;;
53062;SDS011;40529;52.172;10.548;2022-10-17T13:13:43;4.03;;;1.60;;
53062;SDS011;40529;52.172;10.548;2022-10-17T13:18:54;4.72;;;1.90;;
53062;SDS011;40529;52.172;10.548;2022-10-17T13:21:20;6.20;;;2.22;;
53062;SDS011;40529;52.172;10.548;2022-10-17T13:23:46;4.78;;;1.50;;
53062;SDS011;40529;52.172;10.548;2022-10-17T13:26:16;3.67;;;1.63;;
53062;SDS011;40529;52.172;10.548;2022-10-17T13:28:59;6.72;;;1.75;;
53062;SDS011;40529;52.172;10.548;2022-10-17T13:33:54;2.88;;;1.55;;
53062;SDS011;40529;52.172;10.548;2022-10-17T13:36:20;4.40;;;1.85;;
53062;SDS011;40529;52.172;10.548;2022-10-17T13:38:47;3.72;;;1.33;;
53062;SDS011;40529;52.172;10.548;2022-10-17T13:41:13;4.95;;;1.80;;
53062;SDS011;40529;52.172;10.548;2022-10-17T13:43:40;8.13;;;1.52;;
53062;SDS011;40529;52.172;10.548;2022-10-17T13:46:06;8.40;;;1.60;;
53062;SDS011;40529;52.172;10.548;2022-10-17T13:48:34;7.93;;;2.50;;
53062;SDS011;40529;52.172;10.548;2022-10-17T13:51:02;6.70;;;1.60;;
53062;SDS011;40529;52.172;10.548;2022-10-17T13:53:30;6.03;;;1.75;;
53062;SDS011;40529;52.172;10.548;2022-10-17T13:56:00;3.13;;;1.42;;
53062;SDS011;40529;52.172;10.548;2022-10-17T13:58:40;5.38;;;1.90;;
53062;SDS011;40529;52.172;10.548;2022-10-17T14:01:07;4.38;;;1.73;;
53062;SDS011;40529;52.172;10.548;2022-10-17T14:03:33;4.43;;;1.70;;
53062;SDS011;40529;52.172;10.548;2022-10-17T14:08:34;4.68;;;2.00;;
53062;SDS011;40529;52.172;10.548;2022-10-17T14:11:01;4.45;;;1.77;;
53062;SDS011;40529;52.172;10.548;2022-10-17T14:13:28;5.20;;;1.88;;
53062;SDS011;40529;52.172;10.548;2022-10-17T14:15:58;3.35;;;1.60;;
53062;SDS011;40529;52.172;10.548;2022-10-17T14:18:27;7.78;;;2.00;;
53062;SDS011;40529;52.172;10.548;2022-10-17T14:20:53;6.75;;;2.08;;
53062;SDS011;40529;52.172;10.548;2022-10-17T14:28:36;4.80;;;1.70;;
53062;SDS011;40529;52.172;10.548;2022-10-17T14:31:19;3.63;;;1.80;;
53062;SDS011;40529;52.172;10.548;2022-10-17T14:33:47;5.88;;;1.70;;
53062;SDS011;40529;52.172;10.548;2022-10-17T14:36:13;5.60;;;1.80;;
53062;SDS011;40529;52.172;10.548;2022-10-17T14:38:44;5.45;;;1.70;;
53062;SDS011;40529;52.172;10.548;2022-10-17T14:41:15;5.75;;;1.95;;
53062;SDS011;40529;52.172;10.548;2022-10-17T14:43:43;7.50;;;2.55;;
53062;SDS011;40529;52.172;10.548;2022-10-17T14:46:15;5.97;;;1.88;;
53062;SDS011;40529;52.172;10.548;2022-10-17T14:48:41;5.20;;;1.73;;
53062;SDS011;40529;52.172;10.548;2022-10-17T14:51:10;6.63;;;1.90;;
53062;SDS011;40529;52.172;10.548;2022-10-17T14:53:37;8.32;;;2.03;;
53062;SDS011;40529;52.172;10.548;2022-10-17T14:56:22;4.45;;;1.80;;
53062;SDS011;40529;52.172;10.548;2022-10-17T14:58:49;7.90;;;2.08;;
53062;SDS011;40529;52.172;10.548;2022-10-17T15:01:16;6.68;;;1.92;;
53062;SDS011;40529;52.172;10.548;2022-10-17T15:03:42;4.18;;;1.75;;
53062;SDS011;40529;52.172;10.548;2022-10-17T15:06:15;6.53;;;1.98;;
53062;SDS011;40529;52.172;10.548;2022-10-17T15:08:42;4.78;;;1.55;;
53062;SDS011;40529;52.172;10.548;2022-10-17T15:11:08;3.85;;;1.65;;
53062;SDS011;40529;52.172;10.548;2022-10-17T15:13:35;5.38;;;1.88;;
53062;SDS011;40529;52.172;10.548;2022-10-17T15:16:01;7.68;;;1.73;;
53062;SDS011;40529;52.172;10.548;2022-10-17T15:18:27;10.43;;;1.95;;
53062;SDS011;40529;52.172;10.548;2022-10-17T15:20:53;3.60;;;1.73;;
53062;SDS011;40529;52.172;10.548;2022-10-17T15:23:19;6.10;;;1.73;;
53062;SDS011;40529;52.172;10.548;2022-10-17T15:25:45;3.63;;;1.52;;
53062;SDS011;40529;52.172;10.548;2022-10-17T15:28:12;5.22;;;2.00;;
53062;SDS011;40529;52.172;10.548;2022-10-17T15:30:38;4.15;;;1.90;;
53062;SDS011;40529;52.172;10.548;2022-10-17T15:33:04;5.75;;;1.75;;
53062;SDS011;40529;52.172;10.548;2022-10-17T15:35:30;5.78;;;1.98;;
53062;SDS011;40529;52.172;10.548;2022-10-17T15:37:56;5.13;;;2.00;;
53062;SDS011;40529;52.172;10.548;2022-10-17T15:40:23;5.53;;;1.80;;
53062;SDS011;40529;52.172;10.548;2022-10-17T15:42:50;7.68;;;1.73;;
53062;SDS011;40529;52.172;10.548;2022-10-17T15:45:17;6.95;;;1.95;;
53062;SDS011;40529;52.172;10.548;2022-10-17T15:47:48;2.33;;;1.73;;
53062;SDS011;40529;52.172;10.548;2022-10-17T15:50:14;3.75;;;1.90;;
53062;SDS011;40529;52.172;10.548;2022-10-17T15:52:41;4.93;;;1.70;;
53062;SDS011;40529;52.172;10.548;2022-10-17T15:55:10;4.90;;;1.80;;
53062;SDS011;40529;52.172;10.548;2022-10-17T15:57:37;6.20;;;2.28;;
53062;SDS011;40529;52.172;10.548;2022-10-17T16:00:04;9.35;;;2.10;;
53062;SDS011;40529;52.172;10.548;2022-10-17T16:02:31;10.13;;;2.70;;
53062;SDS011;40529;52.172;10.548;2022-10-17T16:04:57;5.57;;;2.10;;
53062;SDS011;40529;52.172;10.548;2022-10-17T16:07:23;2.35;;;1.70;;
53062;SDS011;40529;52.172;10.548;2022-10-17T16:09:49;4.65;;;2.20;;
53062;SDS011;40529;52.172;10.548;2022-10-17T16:12:16;5.93;;;2.30;;
53062;SDS011;40529;52.172;10.548;2022-10-17T16:14:43;5.05;;;2.20;;
53062;SDS011;40529;52.172;10.548;2022-10-17T16:17:15;6.85;;;2.38;;
53062;SDS011;40529;52.172;10.548;2022-10-17T16:19:42;5.97;;;2.75;;
53062;SDS011;40529;52.172;10.548;2022-10-17T16:22:16;7.50;;;2.40;;
53062;SDS011;40529;52.172;10.548;2022-10-17T16:24:43;7.72;;;2.75;;
53062;SDS011;40529;52.172;10.548;2022-10-17T16:27:09;9.30;;;2.53;;
53062;SDS011;40529;52.172;10.548;2022-10-17T16:29:35;3.97;;;2.20;;
53062;SDS011;40529;52.172;10.548;2022-10-17T16:32:01;5.78;;;2.30;;
53062;SDS011;40529;52.172;10.548;2022-10-17T16:34:27;6.60;;;2.40;;
53062;SDS011;40529;52.172;10.548;2022-10-17T16:36:54;6.13;;;2.65;;
53062;SDS011;40529;52.172;10.548;2022-10-17T16:39:20;5.40;;;2.70;;
53062;SDS011;40529;52.172;10.548;2022-10-17T16:41:46;8.43;;;2.67;;
53062;SDS011;40529;52.172;10.548;2022-10-17T16:44:12;10.43;;;2.72;;
53062;SDS011;40529;52.172;10.548;2022-10-17T16:46:39;3.55;;;2.10;;
53062;SDS011;40529;52.172;10.548;2022-10-17T16:49:06;7.82;;;2.92;;
53062;SDS011;40529;52.172;10.548;2022-10-17T16:51:32;4.65;;;2.88;;
53062;SDS011;40529;52.172;10.548;2022-10-17T16:54:00;5.78;;;2.90;;
53062;SDS011;40529;52.172;10.548;2022-10-17T16:56:26;6.85;;;2.60;;
53062;SDS011;40529;52.172;10.548;2022-10-17T16:58:54;5.40;;;2.55;;
53062;SDS011;40529;52.172;10.548;2022-10-17T17:01:22;4.53;;;2.55;;
53062;SDS011;40529;52.172;10.548;2022-10-17T17:03:48;5.18;;;2.63;;
53062;SDS011;40529;52.172;10.548;2022-10-17T17:06:16;4.97;;;2.55;;